createdAt,value
2022-08-12T00:00:36.553Z,2.77
2022-08-12T00:03:22.509Z,2.50
2022-08-12T00:06:08.810Z,2.63
2022-08-12T00:08:57.496Z,2.47
2022-08-12T00:11:46.062Z,2.73
2022-08-12T00:14:32.917Z,2.77
2022-08-12T00:17:19.038Z,2.80
2022-08-12T00:20:05.589Z,2.57
2022-08-12T00:22:58.738Z,2.87
2022-08-12T00:26:21.758Z,2.77
2022-08-12T00:29:04.402Z,3.00
2022-08-12T00:31:50.200Z,3.03
2022-08-12T00:34:36.535Z,2.53
2022-08-12T00:37:22.974Z,2.53
2022-08-12T00:40:11.668Z,3.17
2022-08-12T00:42:41.681Z,2.57
2022-08-12T00:45:13.568Z,2.37
2022-08-12T00:47:42.374Z,2.53
2022-08-12T00:50:18.246Z,2.67
2022-08-12T00:52:47.946Z,2.27
2022-08-12T00:55:17.274Z,2.80
2022-08-12T00:57:48.849Z,2.37
2022-08-12T01:00:22.417Z,2.40
2022-08-12T01:02:53.200Z,2.67
2022-08-12T01:05:42.037Z,2.33
2022-08-12T01:08:28.838Z,2.00
2022-08-12T01:11:15.811Z,2.37
2022-08-12T01:13:49.406Z,2.40
2022-08-12T01:16:22.851Z,2.40
2022-08-12T01:18:54.697Z,2.30
2022-08-12T01:21:52.497Z,2.57
2022-08-12T01:24:50.642Z,2.40
2022-08-12T01:27:22.869Z,2.30
2022-08-12T01:29:54.781Z,1.93
2022-08-12T01:32:24.941Z,2.47
2022-08-12T01:35:05.730Z,2.47
2022-08-12T01:37:37.797Z,2.40
2022-08-12T01:40:34.488Z,2.37
2022-08-12T01:43:08.466Z,2.27
2022-08-12T01:45:43.783Z,2.13
2022-08-12T01:48:24.072Z,2.40
2022-08-12T01:51:04.583Z,2.63
2022-08-12T01:53:59.479Z,2.37
2022-08-12T01:56:43.693Z,2.40
2022-08-12T01:59:31.316Z,3.17
2022-08-12T02:02:01.347Z,2.60
2022-08-12T02:05:19.534Z,2.80
2022-08-12T02:08:20.594Z,2.60
2022-08-12T02:11:18.682Z,2.80
2022-08-12T02:14:03.927Z,2.80
2022-08-12T02:16:51.766Z,2.87
2022-08-12T02:19:40.594Z,2.67
2022-08-12T02:22:27.714Z,2.90
2022-08-12T02:25:09.324Z,2.50
2022-08-12T02:27:41.087Z,2.73
2022-08-12T02:30:14.459Z,2.63
2022-08-12T02:32:46.195Z,2.60
2022-08-12T02:35:19.754Z,3.00
2022-08-12T02:37:51.580Z,3.23
2022-08-12T02:40:22.595Z,2.97
2022-08-12T02:42:59.246Z,2.40
2022-08-12T02:45:38.136Z,3.00
2022-08-12T02:48:10.644Z,3.03
2022-08-12T02:50:48.482Z,2.93
2022-08-12T02:53:18.601Z,2.73
2022-08-12T02:55:47.338Z,2.83
2022-08-12T02:58:16.040Z,2.87
2022-08-12T03:00:49.986Z,2.80
2022-08-12T03:03:20.617Z,2.87
2022-08-12T03:05:58.349Z,2.50
2022-08-12T03:08:33.229Z,2.80
2022-08-12T03:11:14.665Z,2.80
2022-08-12T03:13:48.034Z,2.67
2022-08-12T03:16:18.345Z,3.10
2022-08-12T03:18:46.972Z,2.57
2022-08-12T03:21:52.687Z,2.90
2022-08-12T03:24:09.478Z,2.73
2022-08-12T03:26:39.065Z,2.67
2022-08-12T03:29:08.541Z,3.10
2022-08-12T03:31:38.267Z,2.37
2022-08-12T03:34:09.354Z,3.20
2022-08-12T03:36:40.568Z,2.87
2022-08-12T03:39:35.507Z,2.60
2022-08-12T03:42:24.223Z,3.10
2022-08-12T03:45:24.718Z,2.90
2022-08-12T03:48:19.395Z,3.00
2022-08-12T03:51:06.489Z,3.17
2022-08-12T03:53:52.780Z,2.70
2022-08-12T03:56:38.856Z,2.77
2022-08-12T03:59:26.068Z,3.10
2022-08-12T04:01:57.528Z,2.40
2022-08-12T04:04:34.703Z,2.87
2022-08-12T04:07:07.882Z,2.70
2022-08-12T04:09:39.648Z,2.60
2022-08-12T04:12:26.743Z,3.17
2022-08-12T04:15:02.738Z,2.70
2022-08-12T04:17:32.095Z,2.63
2022-08-12T04:20:01.866Z,2.70
2022-08-12T04:22:31.193Z,3.00
2022-08-12T04:25:01.979Z,3.10
2022-08-12T04:27:32.712Z,2.80
2022-08-12T04:30:17.097Z,2.67
2022-08-12T04:32:52.238Z,2.43
2022-08-12T04:35:23.781Z,2.60
2022-08-12T04:37:59.130Z,2.90
2022-08-12T04:40:31.922Z,2.90
2022-08-12T04:43:02.242Z,2.40
2022-08-12T04:45:31.378Z,2.73
2022-08-12T04:48:01.662Z,2.80
2022-08-12T04:50:36.168Z,2.67
2022-08-12T04:53:08.149Z,2.63
2022-08-12T04:55:38.689Z,2.83
2022-08-12T04:58:07.267Z,3.17
2022-08-12T05:00:36.005Z,2.80
2022-08-12T05:03:05.837Z,2.67
2022-08-12T05:05:37.991Z,3.07
2022-08-12T05:08:12.199Z,2.80
2022-08-12T05:10:40.774Z,3.07
2022-08-12T05:13:12.587Z,2.80
2022-08-12T05:16:00.275Z,3.10
2022-08-12T05:18:31.558Z,3.53
2022-08-12T05:21:01.289Z,2.57
2022-08-12T05:23:32.045Z,3.13
2022-08-12T05:26:01.547Z,3.57
2022-08-12T05:28:31.186Z,3.70
2022-08-12T05:31:01.845Z,3.43
2022-08-12T05:33:37.578Z,3.33
2022-08-12T05:36:09.962Z,3.07
2022-08-12T05:38:55.592Z,3.63
2022-08-12T05:41:24.893Z,3.13
2022-08-12T05:43:56.642Z,2.90
2022-08-12T05:46:26.768Z,3.40
2022-08-12T05:48:56.628Z,2.93
2022-08-12T05:51:39.924Z,3.10
2022-08-12T05:54:11.867Z,3.10
2022-08-12T05:56:41.602Z,3.10
2022-08-12T05:59:12.209Z,2.90
2022-08-12T06:02:12.666Z,3.37
2022-08-12T06:04:30.080Z,3.70
2022-08-12T06:07:01.827Z,2.90
2022-08-12T06:09:31.325Z,2.90
2022-08-12T06:12:05.680Z,2.80
2022-08-12T06:14:37.750Z,2.63
2022-08-12T06:17:09.129Z,2.73
2022-08-12T06:20:25.966Z,2.90
2022-08-12T06:22:27.894Z,2.97
2022-08-12T06:24:56.263Z,2.67
2022-08-12T06:27:24.590Z,2.67
2022-08-12T06:30:08.820Z,2.57
2022-08-12T06:32:51.642Z,2.60
2022-08-12T06:35:49.348Z,2.20
2022-08-12T06:38:21.446Z,2.30
2022-08-12T06:41:11.759Z,2.40
2022-08-12T06:44:05.915Z,2.50
2022-08-12T06:46:31.244Z,2.00
2022-08-12T06:49:00.600Z,2.53
2022-08-12T06:51:32.794Z,2.30
2022-08-12T06:54:03.205Z,2.37
2022-08-12T06:57:03.604Z,2.30
2022-08-12T06:59:21.477Z,2.30
2022-08-12T07:01:51.693Z,2.33
2022-08-12T07:04:38.287Z,2.00
2022-08-12T07:07:08.965Z,2.57
2022-08-12T07:10:01.613Z,2.20
2022-08-12T07:12:28.721Z,2.13
2022-08-12T07:14:58.218Z,2.33
2022-08-12T07:17:27.974Z,2.20
2022-08-12T07:20:00.597Z,2.40
2022-08-12T07:22:33.160Z,2.27
2022-08-12T07:25:40.865Z,2.70
2022-08-12T07:28:16.400Z,2.53
2022-08-12T07:30:48.474Z,2.13
2022-08-12T07:33:17.965Z,2.07
2022-08-12T07:35:48.257Z,2.00
2022-08-12T07:38:29.576Z,1.90
2022-08-12T07:41:06.136Z,1.90
2022-08-12T07:43:39.400Z,1.87
2022-08-12T07:46:11.330Z,2.03
2022-08-12T07:48:43.755Z,1.77
2022-08-12T07:51:12.944Z,1.90
2022-08-12T07:54:00.710Z,1.70
2022-08-12T07:56:32.963Z,1.73
2022-08-12T07:59:03.027Z,2.00
2022-08-12T08:01:32.989Z,2.50
2022-08-12T08:04:19.576Z,2.20
2022-08-12T08:06:49.326Z,2.10
2022-08-12T08:09:22.756Z,2.00
2022-08-12T08:12:19.255Z,1.90
2022-08-12T08:14:50.152Z,2.13
2022-08-12T08:17:18.979Z,2.00
2022-08-12T08:20:03.508Z,2.33
2022-08-12T08:22:41.709Z,1.90
2022-08-12T08:25:35.829Z,2.10
2022-08-12T08:28:03.380Z,2.17
2022-08-12T08:30:33.195Z,2.30
2022-08-12T08:33:01.599Z,2.10
2022-08-12T08:35:46.307Z,1.80
2022-08-12T08:38:30.739Z,1.63
2022-08-12T08:42:15.752Z,1.93
2022-08-12T08:44:10.899Z,1.80
2022-08-12T08:46:39.981Z,1.90
2022-08-12T08:49:08.950Z,1.70
2022-08-12T08:51:38.558Z,1.73
2022-08-12T08:54:08.642Z,1.98
2022-08-12T08:56:44.544Z,1.80
2022-08-12T08:59:15.369Z,2.03
2022-08-12T09:01:44.783Z,1.60
2022-08-12T09:05:09.528Z,1.73
2022-08-12T09:07:17.082Z,2.30
2022-08-12T09:10:02.286Z,1.98
2022-08-12T09:12:54.901Z,1.27
2022-08-12T09:15:35.544Z,1.75
2022-08-12T09:18:08.736Z,2.38
2022-08-12T09:20:40.002Z,1.42
2022-08-12T09:23:59.615Z,1.60
2022-08-12T09:26:04.559Z,1.52
2022-08-12T09:28:34.430Z,1.40
2022-08-12T09:32:02.834Z,1.17
2022-08-12T09:34:25.426Z,0.93
2022-08-12T09:37:00.216Z,0.80
2022-08-12T09:40:07.988Z,1.00
2022-08-12T09:42:54.270Z,0.80
2022-08-12T09:46:06.694Z,0.80
2022-08-12T09:48:20.148Z,0.70
2022-08-12T09:50:55.276Z,0.88
2022-08-12T09:53:36.540Z,0.98
2022-08-12T09:56:59.369Z,0.82
2022-08-12T09:59:01.791Z,0.98
2022-08-12T10:01:34.920Z,0.80
2022-08-12T10:04:20.739Z,1.13
2022-08-12T10:06:55.475Z,0.90
2022-08-12T10:09:28.606Z,1.10
2022-08-12T10:12:33.551Z,0.98
2022-08-12T10:15:02.554Z,0.82
2022-08-12T10:17:31.100Z,1.10
2022-08-12T10:20:01.429Z,0.90
2022-08-12T10:22:49.098Z,0.90
2022-08-12T10:26:36.558Z,1.13
2022-08-12T10:28:41.143Z,0.90
2022-08-12T10:31:29.468Z,0.90
2022-08-12T10:34:26.230Z,1.08
2022-08-12T10:37:10.465Z,0.95
2022-08-12T10:40:01.311Z,0.70
2022-08-12T10:43:00.559Z,0.80
2022-08-12T10:45:31.230Z,1.00
2022-08-12T10:48:07.180Z,0.77
2022-08-12T10:51:01.044Z,0.80
2022-08-12T10:53:45.458Z,1.17
2022-08-12T10:56:15.648Z,0.90
2022-08-12T10:58:46.218Z,0.70
2022-08-12T11:03:01.551Z,0.75
2022-08-12T11:04:27.159Z,0.70
2022-08-12T11:07:09.475Z,0.80
2022-08-12T11:10:00.965Z,1.00
2022-08-12T11:12:54.933Z,0.90
2022-08-12T11:15:24.213Z,0.88
2022-08-12T11:18:03.217Z,0.80
2022-08-12T11:20:31.831Z,0.80
2022-08-12T11:23:04.051Z,0.70
2022-08-12T11:25:57.344Z,1.00
2022-08-12T11:28:33.957Z,0.80
2022-08-12T11:31:04.873Z,0.80
2022-08-12T11:34:04.286Z,0.77
2022-08-12T11:36:22.476Z,0.70
2022-08-12T11:38:51.437Z,0.80
2022-08-12T11:41:31.150Z,0.80
2022-08-12T11:44:34.908Z,0.85
2022-08-12T11:46:51.430Z,1.00
2022-08-12T11:49:32.349Z,1.10
2022-08-12T11:52:02.801Z,0.82
2022-08-12T11:54:31.924Z,0.90
2022-08-12T11:58:07.355Z,0.90
2022-08-12T12:02:40.831Z,0.85
2022-08-12T12:05:09.997Z,1.05
2022-08-12T12:08:37.727Z,0.80
2022-08-12T12:10:29.198Z,0.85
2022-08-12T12:12:58.926Z,1.10
2022-08-12T12:15:40.747Z,1.30
2022-08-12T12:18:22.516Z,1.60
2022-08-12T12:21:01.216Z,2.00
2022-08-12T12:23:30.893Z,5.18
2022-08-12T12:26:08.290Z,1.30
2022-08-12T12:28:41.515Z,0.93
2022-08-12T12:32:09.258Z,0.77
2022-08-12T12:34:12.682Z,0.88
2022-08-12T12:37:00.889Z,1.17
2022-08-12T12:39:54.580Z,1.00
2022-08-12T12:42:43.185Z,0.90
2022-08-12T12:45:19.768Z,0.80
2022-08-12T12:48:00.190Z,1.40
2022-08-12T12:52:17.169Z,0.90
2022-08-12T12:54:12.973Z,1.17
2022-08-12T12:56:49.999Z,1.13
2022-08-12T12:59:35.011Z,1.00
2022-08-12T13:02:08.819Z,1.33
2022-08-12T13:04:38.246Z,0.82
2022-08-12T13:07:07.929Z,0.90
2022-08-12T13:09:36.934Z,0.80
2022-08-12T13:12:10.787Z,0.93
2022-08-12T13:14:39.997Z,1.00
2022-08-12T13:17:11.367Z,1.40
2022-08-12T13:19:45.427Z,1.25
2022-08-12T13:22:20.794Z,0.90
2022-08-12T13:24:55.904Z,1.08
2022-08-12T13:27:34.669Z,1.10
2022-08-12T13:30:13.793Z,1.10
2022-08-12T13:32:57.129Z,1.00
2022-08-12T13:35:33.702Z,1.10
2022-08-12T13:38:15.773Z,1.10
2022-08-12T13:40:55.966Z,1.10
2022-08-12T13:43:40.541Z,1.08
2022-08-12T13:46:12.395Z,1.00
2022-08-12T13:48:45.161Z,1.10
2022-08-12T13:51:14.413Z,1.00
2022-08-12T13:53:55.340Z,1.40
2022-08-12T13:56:34.779Z,0.80
2022-08-12T13:59:08.575Z,0.85
2022-08-12T14:01:40.557Z,0.95
2022-08-12T14:04:11.619Z,0.88
2022-08-12T14:06:40.901Z,1.17
2022-08-12T14:09:17.391Z,1.00
2022-08-12T14:11:58.773Z,0.93
2022-08-12T14:14:31.284Z,1.30
2022-08-12T14:17:05.641Z,0.80
2022-08-12T14:19:48.701Z,1.42
2022-08-12T14:22:26.044Z,1.00
2022-08-12T14:24:55.454Z,1.20
2022-08-12T14:28:03.943Z,0.95
2022-08-12T14:30:28.840Z,1.25
2022-08-12T14:32:58.060Z,1.30
2022-08-12T14:35:28.102Z,1.30
2022-08-12T14:38:25.895Z,1.50
2022-08-12T14:40:57.655Z,1.15
2022-08-12T14:43:31.524Z,1.27
2022-08-12T14:46:01.825Z,1.03
2022-08-12T14:48:30.654Z,1.00
2022-08-12T14:52:10.624Z,1.37
2022-08-12T14:55:24.741Z,1.10
2022-08-12T14:59:58.162Z,0.93
2022-08-12T15:02:28.537Z,1.10
2022-08-12T15:04:59.301Z,1.00
2022-08-12T15:07:33.524Z,1.13
2022-08-12T15:10:13.426Z,0.90
2022-08-12T15:12:42.170Z,1.10
2022-08-12T15:15:11.684Z,0.90
2022-08-12T15:17:40.306Z,1.17
2022-08-12T15:20:31.762Z,1.10
2022-08-12T15:23:00.511Z,1.17
2022-08-12T15:25:29.647Z,0.97
2022-08-12T15:28:10.834Z,1.00
2022-08-12T15:30:49.670Z,1.40
2022-08-12T15:33:21.120Z,1.20
2022-08-12T15:35:53.853Z,1.10
2022-08-12T15:38:28.090Z,1.33
2022-08-12T15:41:00.092Z,2.13
2022-08-12T15:44:15.878Z,1.17
2022-08-12T15:46:21.279Z,0.90
2022-08-12T15:48:54.831Z,1.70
2022-08-12T15:51:57.304Z,1.17
2022-08-12T15:54:30.807Z,1.20
2022-08-12T15:57:05.698Z,1.20
2022-08-12T16:00:03.911Z,0.90
2022-08-12T16:02:29.919Z,1.10
2022-08-12T16:04:58.841Z,1.10
2022-08-12T16:07:40.827Z,1.23
2022-08-12T16:10:11.769Z,1.10
2022-08-12T16:12:54.963Z,1.10
2022-08-12T16:15:26.698Z,1.70
2022-08-12T16:18:18.477Z,1.00
2022-08-12T16:20:47.343Z,1.00
2022-08-12T16:23:26.672Z,1.10
2022-08-12T16:26:15.151Z,1.10
2022-08-12T16:28:47.425Z,1.30
2022-08-12T16:31:23.231Z,1.10
2022-08-12T16:33:59.697Z,1.27
2022-08-12T16:36:30.363Z,1.13
2022-08-12T16:39:01.603Z,1.17
2022-08-12T16:41:38.039Z,1.10
2022-08-12T16:44:09.422Z,1.33
2022-08-12T16:46:39.253Z,1.40
2022-08-12T16:49:09.135Z,1.30
2022-08-12T16:51:46.850Z,1.10
2022-08-12T16:54:18.473Z,1.03
2022-08-12T16:56:55.191Z,1.33
2022-08-12T16:59:53.495Z,1.20
2022-08-12T17:02:31.963Z,1.07
2022-08-12T17:05:05.155Z,1.27
2022-08-12T17:07:36.811Z,0.90
2022-08-12T17:10:08.665Z,0.97
2022-08-12T17:12:39.001Z,1.10
2022-08-12T17:15:51.121Z,1.00
2022-08-12T17:18:42.285Z,1.00
2022-08-12T17:20:48.987Z,0.90
2022-08-12T17:23:20.319Z,1.20
2022-08-12T17:25:51.889Z,1.03
2022-08-12T17:28:23.098Z,0.90
2022-08-12T17:30:59.709Z,0.90
2022-08-12T17:33:34.742Z,1.00
2022-08-12T17:36:05.484Z,1.17
2022-08-12T17:38:35.145Z,1.30
2022-08-12T17:41:22.685Z,0.80
2022-08-12T17:43:58.577Z,1.10
2022-08-12T17:46:33.093Z,1.10
2022-08-12T17:49:18.834Z,1.40
2022-08-12T17:52:02.583Z,1.00
2022-08-12T17:54:32.830Z,1.00
2022-08-12T17:57:02.547Z,1.00
2022-08-12T17:59:48.029Z,1.20
2022-08-12T18:02:29.949Z,1.30
2022-08-12T18:05:09.440Z,1.03
2022-08-12T18:07:39.520Z,1.20
2022-08-12T18:10:09.147Z,1.00
2022-08-12T18:12:42.835Z,1.80
2022-08-12T18:15:26.024Z,1.40
2022-08-12T18:17:59.240Z,1.23
2022-08-12T18:20:29.768Z,1.10
2022-08-12T18:23:03.141Z,1.20
2022-08-12T18:26:14.989Z,1.30
2022-08-12T18:28:43.204Z,1.50
2022-08-12T18:31:16.871Z,1.30
2022-08-12T18:33:48.079Z,1.30
2022-08-12T18:36:22.429Z,1.73
2022-08-12T18:38:56.060Z,1.63
2022-08-12T18:41:34.305Z,1.27
2022-08-12T18:44:09.483Z,1.70
2022-08-12T18:46:53.678Z,1.73
2022-08-12T18:49:30.737Z,1.57
2022-08-12T18:52:05.731Z,1.47
2022-08-12T18:54:48.737Z,1.50
2022-08-12T18:58:07.582Z,1.93
2022-08-12T19:00:21.213Z,1.57
2022-08-12T19:02:54.037Z,1.70
2022-08-12T19:05:53.254Z,1.57
2022-08-12T19:08:14.420Z,1.40
2022-08-12T19:10:50.195Z,1.50
2022-08-12T19:13:37.692Z,1.50
2022-08-12T19:16:11.584Z,1.50
2022-08-12T19:18:44.970Z,1.80
2022-08-12T19:21:17.046Z,1.77
2022-08-12T19:24:11.626Z,1.40
2022-08-12T19:26:42.566Z,1.70
2022-08-12T19:29:12.054Z,1.90
2022-08-12T19:31:57.706Z,1.80
2022-08-12T19:37:27.195Z,1.50
2022-08-12T19:40:08.694Z,1.90
2022-08-12T19:43:00.726Z,1.50
2022-08-12T19:45:42.419Z,1.60
2022-08-12T19:48:19.289Z,1.67
2022-08-12T19:50:53.023Z,1.53
2022-08-12T19:53:23.506Z,1.43
2022-08-12T19:55:54.379Z,1.87
2022-08-12T19:58:24.516Z,1.50
2022-08-12T20:00:55.446Z,1.40
2022-08-12T20:03:37.937Z,1.40
2022-08-12T20:06:16.078Z,1.60
2022-08-12T20:08:47.912Z,1.87
2022-08-12T20:12:09.094Z,1.73
2022-08-12T20:14:08.321Z,1.60
2022-08-12T20:16:57.777Z,1.40
2022-08-12T20:20:01.130Z,1.47
2022-08-12T20:22:24.015Z,1.40
2022-08-12T20:25:01.320Z,1.60
2022-08-12T20:28:04.559Z,2.20
2022-08-12T20:30:52.446Z,1.67
2022-08-12T20:33:18.336Z,1.47
2022-08-12T20:36:13.838Z,1.70
2022-08-12T20:38:46.033Z,1.83
2022-08-12T20:41:19.031Z,1.60
2022-08-12T20:43:50.515Z,1.40
2022-08-12T20:46:21.230Z,2.00
2022-08-12T20:48:54.730Z,1.80
2022-08-12T20:51:23.952Z,3.30
2022-08-12T20:53:59.745Z,3.13
2022-08-12T20:56:33.026Z,2.50
2022-08-12T20:59:06.791Z,2.17
2022-08-12T21:01:47.657Z,2.17
2022-08-12T21:04:36.764Z,2.20
2022-08-12T21:07:09.535Z,1.70
2022-08-12T21:09:44.447Z,1.90
2022-08-12T21:12:27.632Z,1.83
2022-08-12T21:15:17.256Z,1.57
2022-08-12T21:18:10.583Z,1.70
2022-08-12T21:20:50.678Z,1.53
2022-08-12T21:23:21.459Z,1.80
2022-08-12T21:26:01.032Z,1.80
2022-08-12T21:28:31.100Z,1.87
2022-08-12T21:32:35.152Z,2.00
2022-08-12T21:34:07.233Z,1.77
2022-08-12T21:36:40.268Z,1.70
2022-08-12T21:39:21.649Z,1.70
2022-08-12T21:41:54.823Z,1.90
2022-08-12T21:45:44.558Z,1.80
2022-08-12T21:47:20.263Z,2.00
2022-08-12T21:49:54.161Z,1.80
2022-08-12T21:52:28.419Z,2.27
2022-08-12T21:55:04.240Z,1.90
2022-08-12T21:57:48.208Z,1.80
2022-08-12T22:00:20.840Z,2.00
2022-08-12T22:03:07.806Z,1.93
2022-08-12T22:05:53.746Z,2.10
2022-08-12T22:08:26.135Z,2.03
2022-08-12T22:10:56.514Z,2.10
2022-08-12T22:14:02.037Z,2.50
2022-08-12T22:16:17.819Z,2.83
2022-08-12T22:18:50.240Z,2.10
2022-08-12T22:21:22.310Z,2.20
2022-08-12T22:24:04.931Z,2.40
2022-08-12T22:26:37.458Z,1.77
2022-08-12T22:29:26.726Z,1.87
2022-08-12T22:31:56.300Z,1.80
2022-08-12T22:34:29.334Z,1.93
2022-08-12T22:36:58.367Z,2.00
2022-08-12T22:39:27.340Z,1.87
2022-08-12T22:42:12.974Z,2.00
2022-08-12T22:45:00.003Z,2.10
2022-08-12T22:47:53.911Z,2.10
2022-08-12T22:50:27.437Z,1.90
2022-08-12T22:53:15.109Z,1.90
2022-08-12T22:55:59.523Z,2.20
2022-08-12T22:58:40.288Z,1.87
2022-08-12T23:01:13.819Z,2.50
2022-08-12T23:04:00.487Z,2.03
2022-08-12T23:06:31.381Z,2.20
2022-08-12T23:08:59.711Z,2.03
2022-08-12T23:11:33.863Z,1.90
2022-08-12T23:14:08.898Z,2.70
2022-08-12T23:16:41.234Z,2.10
2022-08-12T23:19:18.152Z,2.07
2022-08-12T23:22:06.684Z,2.23
2022-08-12T23:24:56.357Z,2.33
2022-08-12T23:27:50.900Z,2.43
2022-08-12T23:30:31.649Z,2.20
2022-08-12T23:33:02.330Z,1.90
2022-08-12T23:35:53.795Z,2.67
2022-08-12T23:38:31.346Z,2.30
2022-08-12T23:41:01.312Z,2.07
2022-08-12T23:43:38.390Z,2.10
2022-08-12T23:46:10.416Z,2.07
2022-08-12T23:48:40.937Z,1.80
2022-08-12T23:51:22.382Z,2.10
2022-08-12T23:53:55.284Z,2.07
2022-08-12T23:56:25.336Z,2.00
2022-08-12T23:58:57.523Z,2.13
